createdAt,value
2018-04-27T00:00:13.606Z,54.90
2018-04-27T00:02:41.264Z,54.90
2018-04-27T00:05:08.956Z,54.90
2018-04-27T00:07:36.522Z,54.90
2018-04-27T00:10:03.984Z,54.80
2018-04-27T00:12:31.440Z,54.90
2018-04-27T00:14:58.940Z,54.90
2018-04-27T00:17:26.376Z,54.90
2018-04-27T00:19:54.012Z,54.90
2018-04-27T00:22:21.471Z,54.90
2018-04-27T00:24:48.934Z,54.90
2018-04-27T00:27:16.395Z,54.90
2018-04-27T00:29:43.935Z,54.90
2018-04-27T00:32:11.377Z,54.90
2018-04-27T00:34:38.863Z,54.90
2018-04-27T00:37:06.599Z,54.90
2018-04-27T00:39:34.056Z,54.90
2018-04-27T00:42:01.543Z,55.00
2018-04-27T00:44:29.164Z,54.90
2018-04-27T00:46:56.622Z,54.90
2018-04-27T00:49:24.096Z,54.90
2018-04-27T00:51:51.674Z,54.90
2018-04-27T00:54:19.247Z,54.90
2018-04-27T00:56:46.893Z,54.90
2018-04-27T00:59:14.534Z,54.90
2018-04-27T01:01:42.121Z,54.90
2018-04-27T01:04:09.688Z,54.90
2018-04-27T01:06:37.351Z,54.90
2018-04-27T01:09:04.821Z,54.90
2018-04-27T01:11:32.560Z,54.90
2018-04-27T01:14:00.028Z,54.90
2018-04-27T01:16:27.692Z,54.90
2018-04-27T01:18:55.239Z,54.90
2018-04-27T01:21:22.874Z,54.90
2018-04-27T01:23:50.372Z,54.90
2018-04-27T01:26:17.916Z,54.80
2018-04-27T01:28:45.391Z,55.00
2018-04-27T01:31:13.151Z,55.00
2018-04-27T01:33:40.784Z,54.90
2018-04-27T01:36:08.254Z,54.90
2018-04-27T01:38:35.829Z,55.00
2018-04-27T01:41:03.282Z,55.00
2018-04-27T01:43:31.048Z,55.00
2018-04-27T01:45:58.519Z,55.00
2018-04-27T01:48:26.271Z,55.00
2018-04-27T01:50:54.037Z,55.00
2018-04-27T01:53:21.668Z,55.00
2018-04-27T01:55:49.139Z,55.50
2018-04-27T01:58:16.619Z,54.90
2018-04-27T02:00:44.082Z,54.80
2018-04-27T02:06:02.126Z,54.90
2018-04-27T02:08:29.588Z,54.90
2018-04-27T02:10:57.056Z,54.90
2018-04-27T02:13:24.683Z,54.90
2018-04-27T02:15:52.147Z,54.90
2018-04-27T02:18:19.631Z,54.90
2018-04-27T02:20:47.176Z,54.90
2018-04-27T02:23:14.625Z,54.90
2018-04-27T02:25:42.279Z,54.80
2018-04-27T02:28:09.867Z,54.80
2018-04-27T02:30:37.516Z,54.80
2018-04-27T02:33:04.995Z,54.80
2018-04-27T02:35:32.453Z,54.80
2018-04-27T02:37:59.919Z,54.80
2018-04-27T02:40:27.395Z,54.80
2018-04-27T02:42:54.856Z,54.80
2018-04-27T02:45:22.308Z,54.80
2018-04-27T02:47:49.834Z,54.80
2018-04-27T02:50:17.590Z,54.80
2018-04-27T02:52:45.054Z,54.90
2018-04-27T02:55:12.520Z,54.80
2018-04-27T02:57:40.158Z,54.90
2018-04-27T03:00:07.737Z,54.80
2018-04-27T03:02:35.187Z,54.80
2018-04-27T03:05:02.651Z,54.80
2018-04-27T03:07:30.116Z,54.80
2018-04-27T03:09:57.601Z,54.80
2018-04-27T03:12:25.052Z,54.80
2018-04-27T03:14:52.715Z,54.80
2018-04-27T03:17:20.272Z,54.80
2018-04-27T03:19:47.728Z,54.80
2018-04-27T03:22:15.353Z,54.80
2018-04-27T03:24:42.946Z,54.80
2018-04-27T03:27:10.413Z,54.80
2018-04-27T03:29:38.158Z,54.70
2018-04-27T03:32:05.616Z,54.80
2018-04-27T03:34:33.245Z,54.80
2018-04-27T03:37:00.754Z,54.70
2018-04-27T03:39:28.145Z,54.80
2018-04-27T03:41:55.632Z,54.70
2018-04-27T03:44:23.240Z,54.70
2018-04-27T03:46:50.910Z,54.70
2018-04-27T03:49:18.443Z,54.70
2018-04-27T03:51:45.924Z,54.70
2018-04-27T03:54:13.661Z,54.80
2018-04-27T03:56:41.432Z,54.80
2018-04-27T03:59:09.071Z,54.80
2018-04-27T04:01:48.259Z,54.70
2018-04-27T04:04:27.499Z,54.70
2018-04-27T04:06:54.953Z,54.70
2018-04-27T04:09:22.546Z,54.70
2018-04-27T04:11:50.073Z,54.70
2018-04-27T04:14:17.540Z,54.70
2018-04-27T04:16:45.059Z,54.70
2018-04-27T04:19:12.516Z,54.70
2018-04-27T04:21:40.162Z,54.60
2018-04-27T04:24:07.754Z,54.70
2018-04-27T04:26:35.512Z,54.80
2018-04-27T04:29:02.961Z,54.70
2018-04-27T04:31:30.604Z,54.70
2018-04-27T04:33:58.079Z,54.70
2018-04-27T04:36:25.590Z,54.70
2018-04-27T04:38:53.105Z,54.70
2018-04-27T04:41:20.758Z,54.70
2018-04-27T04:43:48.211Z,54.60
2018-04-27T04:46:15.668Z,54.60
2018-04-27T04:48:43.143Z,54.70
2018-04-27T04:51:10.608Z,54.60
2018-04-27T04:53:38.070Z,54.60
2018-04-27T04:56:05.547Z,54.60
2018-04-27T04:58:33.093Z,54.60
2018-04-27T05:01:00.556Z,54.60
2018-04-27T05:03:28.017Z,54.70
2018-04-27T05:05:55.471Z,54.60
2018-04-27T05:08:23.100Z,54.70
2018-04-27T05:10:50.625Z,54.60
2018-04-27T05:13:18.056Z,54.60
2018-04-27T05:15:45.500Z,54.70
2018-04-27T05:21:12.620Z,54.60
2018-04-27T05:23:40.079Z,54.70
2018-04-27T05:26:07.558Z,54.60
2018-04-27T05:28:35.139Z,54.60
2018-04-27T05:31:14.307Z,54.60
2018-04-27T05:33:41.933Z,54.50
2018-04-27T05:36:09.391Z,54.40
2018-04-27T05:38:36.840Z,54.20
2018-04-27T05:41:04.397Z,54.20
2018-04-27T05:43:31.856Z,53.40
2018-04-27T05:45:59.489Z,52.80
2018-04-27T05:48:26.997Z,52.00
2018-04-27T05:50:54.454Z,50.70
2018-04-27T05:53:21.902Z,50.40
2018-04-27T05:55:49.576Z,49.20
2018-04-27T05:58:17.548Z,49.10
2018-04-27T06:00:45.305Z,48.10
2018-04-27T06:03:12.773Z,47.80
2018-04-27T06:05:40.332Z,47.40
2018-04-27T06:08:07.837Z,47.90
2018-04-27T06:10:35.435Z,47.90
2018-04-27T06:13:03.080Z,47.20
2018-04-27T06:15:30.540Z,46.30
2018-04-27T06:17:58.033Z,46.50
2018-04-27T06:20:25.579Z,45.80
2018-04-27T06:22:53.225Z,45.30
2018-04-27T06:25:20.801Z,45.60
2018-04-27T06:27:48.259Z,45.80
2018-04-27T06:30:16.020Z,45.40
2018-04-27T06:32:43.480Z,45.60
2018-04-27T06:35:10.940Z,45.20
2018-04-27T06:37:38.414Z,45.50
2018-04-27T06:40:05.912Z,44.90
2018-04-27T06:42:33.412Z,44.60
2018-04-27T06:45:01.087Z,44.20
2018-04-27T06:47:28.542Z,44.30
2018-04-27T06:49:56.295Z,44.70
2018-04-27T06:52:23.750Z,45.20
2018-04-27T06:54:51.511Z,45.60
2018-04-27T06:57:19.165Z,45.90
2018-04-27T06:59:46.695Z,46.30
2018-04-27T07:02:14.168Z,46.70
2018-04-27T07:04:41.664Z,47.00
2018-04-27T07:07:09.080Z,47.40
2018-04-27T07:09:36.572Z,47.40
2018-04-27T07:12:04.019Z,47.80
2018-04-27T07:14:31.515Z,47.90
2018-04-27T07:17:00.079Z,48.00
2018-04-27T07:19:27.662Z,48.30
2018-04-27T07:21:55.400Z,48.40
2018-04-27T07:24:22.856Z,48.60
2018-04-27T07:26:50.304Z,48.60
2018-04-27T07:29:17.960Z,48.90
2018-04-27T07:31:45.559Z,49.00
2018-04-27T07:34:13.055Z,49.80
2018-04-27T07:36:40.836Z,49.50
2018-04-27T07:39:08.444Z,49.40
2018-04-27T07:41:35.898Z,49.70
2018-04-27T07:44:03.464Z,49.70
2018-04-27T07:46:31.080Z,50.10
2018-04-27T07:48:58.603Z,50.10
2018-04-27T07:51:26.056Z,49.80
2018-04-27T07:53:53.540Z,50.40
2018-04-27T07:56:20.997Z,50.40
2018-04-27T07:58:48.471Z,50.20
2018-04-27T08:01:15.929Z,50.20
2018-04-27T08:03:43.376Z,50.20
2018-04-27T08:06:10.895Z,50.30
2018-04-27T08:08:38.520Z,50.40
2018-04-27T08:11:05.964Z,50.50
2018-04-27T08:13:33.475Z,50.60
2018-04-27T08:16:01.024Z,50.60
2018-04-27T08:18:28.491Z,50.70
2018-04-27T08:20:56.175Z,50.70
2018-04-27T08:23:24.083Z,50.70
2018-04-27T08:25:51.541Z,50.70
2018-04-27T08:28:19.007Z,50.70
2018-04-27T08:30:46.672Z,50.90
2018-04-27T08:33:14.132Z,50.90
2018-04-27T08:35:41.592Z,50.90
2018-04-27T08:38:09.047Z,51.60
2018-04-27T08:40:36.862Z,50.90
2018-04-27T08:43:05.152Z,51.10
2018-04-27T08:45:32.614Z,51.00
2018-04-27T08:48:00.129Z,51.10
2018-04-27T08:50:27.734Z,51.00
2018-04-27T08:52:55.246Z,51.20
2018-04-27T08:55:22.718Z,51.20
2018-04-27T08:57:50.953Z,51.30
2018-04-27T09:00:18.411Z,51.20
2018-04-27T09:02:46.118Z,51.30
2018-04-27T09:05:13.576Z,51.30
2018-04-27T09:07:41.195Z,51.40
2018-04-27T09:10:08.675Z,51.40
2018-04-27T09:12:36.241Z,51.50
2018-04-27T09:15:04.627Z,51.60
2018-04-27T09:17:32.086Z,51.50
2018-04-27T09:19:59.572Z,51.60
2018-04-27T09:22:27.012Z,51.70
2018-04-27T09:24:54.477Z,51.80
2018-04-27T09:27:22.095Z,51.80
2018-04-27T09:29:49.566Z,51.80
2018-04-27T09:32:17.070Z,51.70
2018-04-27T09:34:44.553Z,51.80
2018-04-27T09:37:12.010Z,51.80
2018-04-27T09:39:39.470Z,51.80
2018-04-27T09:42:06.932Z,51.90
2018-04-27T09:44:34.419Z,51.80
2018-04-27T09:47:01.876Z,51.80
2018-04-27T09:49:29.660Z,51.80
2018-04-27T09:51:57.115Z,51.90
2018-04-27T09:54:24.748Z,51.90
2018-04-27T09:56:52.191Z,52.00
2018-04-27T09:59:19.663Z,52.00
2018-04-27T10:01:47.231Z,52.00
2018-04-27T10:04:14.735Z,52.10
2018-04-27T10:06:42.189Z,52.10
2018-04-27T10:09:09.639Z,52.10
2018-04-27T10:11:37.085Z,52.10
2018-04-27T10:14:04.844Z,52.00
2018-04-27T10:16:32.599Z,52.10
2018-04-27T10:19:00.067Z,52.00
2018-04-27T10:21:27.528Z,52.10
2018-04-27T10:23:54.991Z,52.10
2018-04-27T10:26:22.636Z,52.20
2018-04-27T10:28:50.142Z,52.30
2018-04-27T10:31:17.659Z,52.30
2018-04-27T10:33:45.443Z,52.30
2018-04-27T10:36:13.076Z,52.40
2018-04-27T10:38:40.536Z,52.40
2018-04-27T10:41:08.003Z,52.50
2018-04-27T10:43:35.555Z,52.40
2018-04-27T10:46:03.019Z,52.10
2018-04-27T10:48:30.813Z,51.60
2018-04-27T10:50:58.337Z,51.40
2018-04-27T10:53:25.910Z,51.10
2018-04-27T10:55:53.376Z,51.10
2018-04-27T10:58:20.839Z,51.20
2018-04-27T11:00:49.082Z,51.50
2018-04-27T11:03:16.778Z,51.40
2018-04-27T11:05:44.411Z,51.70
2018-04-27T11:08:11.892Z,52.00
2018-04-27T11:10:39.347Z,52.50
2018-04-27T11:13:06.803Z,52.10
2018-04-27T11:15:34.255Z,53.20
2018-04-27T11:18:01.739Z,52.60
2018-04-27T11:20:29.286Z,52.70
2018-04-27T11:22:56.912Z,52.60
2018-04-27T11:25:24.366Z,52.50
2018-04-27T11:27:51.890Z,52.50
2018-04-27T11:30:19.355Z,52.50
2018-04-27T11:32:46.808Z,52.50
2018-04-27T11:35:14.283Z,52.70
2018-04-27T11:37:41.743Z,52.70
2018-04-27T11:40:09.220Z,52.70
2018-04-27T11:42:36.676Z,52.70
2018-04-27T11:45:04.336Z,52.80
2018-04-27T11:47:32.828Z,52.80
2018-04-27T11:50:00.275Z,52.70
2018-04-27T11:52:27.731Z,53.00
2018-04-27T11:54:55.199Z,52.90
2018-04-27T11:57:22.644Z,52.90
2018-04-27T11:59:50.111Z,52.90
2018-04-27T12:02:18.079Z,52.90
2018-04-27T12:04:45.683Z,53.00
2018-04-27T12:07:13.456Z,53.00
2018-04-27T12:09:41.079Z,53.00
2018-04-27T12:12:08.535Z,53.00
2018-04-27T12:14:36.022Z,53.00
2018-04-27T12:17:03.579Z,53.10
2018-04-27T12:19:31.206Z,53.00
2018-04-27T12:21:58.971Z,53.00
2018-04-27T12:24:26.616Z,53.10
2018-04-27T12:26:54.407Z,53.10
2018-04-27T12:29:21.838Z,53.20
2018-04-27T12:31:49.390Z,53.20
2018-04-27T12:34:17.027Z,53.20
2018-04-27T12:36:44.797Z,53.30
2018-04-27T12:39:12.714Z,53.20
2018-04-27T12:41:40.318Z,53.20
2018-04-27T12:44:07.779Z,53.30
2018-04-27T12:46:35.543Z,53.40
2018-04-27T12:49:03.006Z,53.40
2018-04-27T12:51:30.487Z,53.30
2018-04-27T12:53:58.072Z,53.40
2018-04-27T12:56:25.604Z,53.80
2018-04-27T12:58:53.139Z,54.10
2018-04-27T13:01:20.817Z,54.00
2018-04-27T13:03:48.284Z,54.00
2018-04-27T13:06:15.739Z,53.70
2018-04-27T13:08:43.198Z,53.80
2018-04-27T13:11:10.652Z,53.60
2018-04-27T13:13:38.098Z,53.90
2018-04-27T13:16:06.435Z,54.10
2018-04-27T13:18:33.955Z,54.00
2018-04-27T13:21:02.299Z,53.60
2018-04-27T13:23:29.751Z,53.60
2018-04-27T13:25:57.331Z,53.30
2018-04-27T13:28:24.788Z,53.20
2018-04-27T13:30:52.443Z,54.00
2018-04-27T13:33:19.921Z,55.10
2018-04-27T13:35:48.244Z,55.10
2018-04-27T13:38:15.845Z,55.10
2018-04-27T13:40:43.320Z,53.90
2018-04-27T13:43:11.000Z,53.70
2018-04-27T13:45:38.744Z,53.50
2018-04-27T13:48:06.227Z,53.50
2018-04-27T13:50:33.735Z,54.00
2018-04-27T13:53:01.490Z,54.70
2018-04-27T13:55:29.150Z,53.70
2018-04-27T13:57:56.735Z,53.70
2018-04-27T14:00:24.503Z,53.70
2018-04-27T14:02:52.020Z,53.50
2018-04-27T14:05:19.431Z,53.60
2018-04-27T14:07:46.893Z,54.40
2018-04-27T14:10:14.640Z,54.20
2018-04-27T14:12:42.098Z,53.70
2018-04-27T14:15:09.549Z,53.50
2018-04-27T14:17:37.037Z,53.70
2018-04-27T14:20:04.836Z,54.40
2018-04-27T14:22:32.536Z,53.40
2018-04-27T14:25:00.200Z,53.70
2018-04-27T14:27:27.680Z,52.70
2018-04-27T14:29:55.123Z,53.10
2018-04-27T14:32:22.597Z,52.30
2018-04-27T14:34:50.135Z,52.40
2018-04-27T14:37:17.657Z,52.20
2018-04-27T14:39:45.373Z,52.70
2018-04-27T14:42:12.827Z,56.20
2018-04-27T14:44:40.281Z,54.30
2018-04-27T14:47:07.738Z,54.80
2018-04-27T14:49:35.376Z,54.40
2018-04-27T14:52:02.843Z,54.10
2018-04-27T14:54:30.449Z,54.10
2018-04-27T14:56:58.072Z,54.00
2018-04-27T14:59:25.518Z,53.60
2018-04-27T15:01:53.099Z,53.90
2018-04-27T15:04:20.731Z,53.80
2018-04-27T15:06:48.237Z,53.80
2018-04-27T15:09:15.775Z,53.80
2018-04-27T15:11:43.428Z,54.50
2018-04-27T15:14:11.931Z,54.20
2018-04-27T15:16:39.416Z,54.20
2018-04-27T15:19:07.171Z,54.20
2018-04-27T15:21:34.615Z,54.20
2018-04-27T15:24:02.245Z,54.70
2018-04-27T15:26:31.219Z,53.90
2018-04-27T15:28:59.547Z,53.90
2018-04-27T15:31:26.996Z,53.90
2018-04-27T15:33:54.634Z,53.80
2018-04-27T15:36:22.107Z,53.80
2018-04-27T15:38:49.594Z,53.80
2018-04-27T15:41:17.116Z,53.90
2018-04-27T15:43:44.718Z,53.80
2018-04-27T15:46:12.232Z,53.70
2018-04-27T15:48:39.837Z,53.80
2018-04-27T15:51:08.276Z,54.30
2018-04-27T15:53:36.688Z,53.60
2018-04-27T15:56:04.213Z,53.60
2018-04-27T15:58:31.761Z,53.70
2018-04-27T16:00:59.467Z,53.70
2018-04-27T16:03:27.235Z,53.60
2018-04-27T16:05:54.691Z,53.60
2018-04-27T16:08:22.460Z,53.60
2018-04-27T16:10:49.946Z,53.70
2018-04-27T16:13:18.180Z,53.60
2018-04-27T16:15:45.676Z,53.60
2018-04-27T16:18:13.128Z,53.60
2018-04-27T16:20:40.576Z,53.60
2018-04-27T16:23:08.172Z,53.50
2018-04-27T16:25:35.616Z,53.60
2018-04-27T16:28:03.641Z,55.10
2018-04-27T16:30:31.135Z,54.60
2018-04-27T16:32:58.765Z,54.20
2018-04-27T16:35:26.221Z,55.60
2018-04-27T16:37:53.802Z,54.80
2018-04-27T16:40:21.708Z,55.20
2018-04-27T16:42:49.306Z,55.30
2018-04-27T16:45:16.754Z,55.70
2018-04-27T16:47:44.245Z,55.90
2018-04-27T16:50:11.869Z,56.00
2018-04-27T16:52:39.471Z,55.90
2018-04-27T16:55:06.928Z,56.40
2018-04-27T16:57:34.691Z,55.20
2018-04-27T17:00:02.327Z,57.80
2018-04-27T17:02:29.923Z,57.30
2018-04-27T17:04:57.367Z,58.60
2018-04-27T17:07:25.017Z,57.70
2018-04-27T17:09:52.683Z,57.00
2018-04-27T17:12:20.138Z,56.70
2018-04-27T17:14:47.743Z,56.40
2018-04-27T17:17:15.268Z,56.10
2018-04-27T17:19:42.683Z,55.80
2018-04-27T17:22:10.133Z,56.00
2018-04-27T17:24:37.584Z,55.70
2018-04-27T17:27:05.033Z,56.00
2018-04-27T17:29:32.583Z,55.90
2018-04-27T17:32:00.048Z,55.80
2018-04-27T17:34:28.373Z,55.70
2018-04-27T17:36:59.810Z,55.60
2018-04-27T17:39:29.345Z,55.60
2018-04-27T17:41:57.197Z,55.60
2018-04-27T17:44:24.733Z,55.60
2018-04-27T17:46:52.321Z,55.50
2018-04-27T17:49:19.820Z,55.40
2018-04-27T17:51:47.359Z,55.40
2018-04-27T17:54:15.011Z,56.30
2018-04-27T17:56:42.766Z,56.90
2018-04-27T17:59:10.293Z,58.00
2018-04-27T18:01:37.738Z,58.80
2018-04-27T18:04:05.279Z,58.90
2018-04-27T18:06:32.739Z,58.60
2018-04-27T18:09:00.514Z,57.10
2018-04-27T18:11:28.157Z,56.80
2018-04-27T18:13:55.587Z,56.40
2018-04-27T18:16:23.045Z,56.00
2018-04-27T18:18:50.512Z,55.90
2018-04-27T18:21:17.955Z,55.80
2018-04-27T18:23:45.472Z,55.80
2018-04-27T18:26:13.015Z,55.70
2018-04-27T18:28:40.664Z,55.70
2018-04-27T18:31:08.232Z,55.80
2018-04-27T18:33:35.683Z,55.70
2018-04-27T18:36:03.145Z,55.60
2018-04-27T18:38:30.807Z,55.60
2018-04-27T18:40:58.254Z,55.60
2018-04-27T18:43:25.769Z,55.60
2018-04-27T18:45:53.236Z,55.50
2018-04-27T18:48:20.699Z,55.40
2018-04-27T18:50:51.714Z,55.50
2018-04-27T18:53:19.352Z,56.90
2018-04-27T18:55:47.009Z,57.90
2018-04-27T18:58:14.471Z,56.60
2018-04-27T19:00:42.032Z,56.10
2018-04-27T19:03:09.818Z,55.80
2018-04-27T19:05:37.160Z,56.00
2018-04-27T19:08:05.932Z,55.80
2018-04-27T19:10:37.853Z,55.70
2018-04-27T19:13:06.939Z,55.70
2018-04-27T19:15:34.464Z,55.70
2018-04-27T19:18:03.336Z,55.70
2018-04-27T19:20:32.305Z,55.70
2018-04-27T19:23:20.242Z,55.80
2018-04-27T19:25:48.537Z,55.80
2018-04-27T19:28:16.452Z,55.80
2018-04-27T19:30:44.626Z,55.80
2018-04-27T19:33:13.319Z,55.60
2018-04-27T19:35:41.515Z,55.60
2018-04-27T19:38:09.755Z,55.70
2018-04-27T19:40:40.381Z,55.70
2018-04-27T19:43:07.836Z,55.60
2018-04-27T19:45:35.491Z,55.70
2018-04-27T19:48:03.059Z,55.90
2018-04-27T19:50:30.520Z,56.50
2018-04-27T19:52:58.287Z,55.50
2018-04-27T19:55:25.747Z,55.50
2018-04-27T19:57:53.220Z,55.50
2018-04-27T20:00:20.684Z,55.40
2018-04-27T20:02:48.136Z,55.50
2018-04-27T20:05:15.604Z,55.50
2018-04-27T20:07:43.088Z,55.50
2018-04-27T20:10:19.089Z,55.40
2018-04-27T20:12:46.546Z,55.40
2018-04-27T20:15:14.307Z,55.40
2018-04-27T20:17:45.049Z,55.60
2018-04-27T20:20:16.169Z,55.30
2018-04-27T20:22:47.746Z,55.40
2018-04-27T20:25:15.212Z,55.40
2018-04-27T20:27:43.409Z,55.50
2018-04-27T20:30:12.362Z,55.40
2018-04-27T20:32:44.282Z,55.40
2018-04-27T20:35:14.077Z,55.40
2018-04-27T20:37:42.336Z,55.40
2018-04-27T20:40:13.207Z,55.40
2018-04-27T20:42:40.657Z,55.40
2018-04-27T20:45:10.857Z,55.40
2018-04-27T20:47:38.312Z,55.40
2018-04-27T20:50:05.836Z,55.40
2018-04-27T20:52:36.590Z,55.40
2018-04-27T20:55:06.859Z,55.40
2018-04-27T20:57:34.498Z,55.40
2018-04-27T21:00:02.837Z,55.40
2018-04-27T21:02:30.423Z,55.40
2018-04-27T21:04:57.923Z,55.40
2018-04-27T21:07:25.646Z,55.40
2018-04-27T21:09:53.110Z,55.30
2018-04-27T21:12:20.571Z,55.20
2018-04-27T21:14:48.028Z,55.30
2018-04-27T21:17:15.500Z,55.30
2018-04-27T21:19:43.111Z,55.20
2018-04-27T21:22:11.243Z,55.30
2018-04-27T21:24:38.697Z,55.30
2018-04-27T21:27:06.247Z,55.20
2018-04-27T21:29:37.088Z,55.20
2018-04-27T21:32:04.548Z,55.20
2018-04-27T21:34:32.003Z,55.20
2018-04-27T21:36:59.459Z,55.30
2018-04-27T21:39:30.591Z,55.30
2018-04-27T21:42:00.683Z,55.30
2018-04-27T21:44:30.123Z,55.30
2018-04-27T21:50:03.820Z,54.90
2018-04-27T21:52:34.087Z,55.00
2018-04-27T21:55:02.356Z,55.10
2018-04-27T21:57:32.879Z,55.10
2018-04-27T22:00:02.898Z,55.20
2018-04-27T22:02:33.988Z,55.30
2018-04-27T22:05:09.375Z,55.30
2018-04-27T22:07:37.145Z,55.20
2018-04-27T22:10:04.610Z,55.30
2018-04-27T22:12:37.897Z,55.40
2018-04-27T22:15:05.340Z,55.30
2018-04-27T22:17:32.811Z,55.30
2018-04-27T22:20:02.226Z,55.20
2018-04-27T22:22:29.673Z,55.30
2018-04-27T22:25:06.860Z,55.20
2018-04-27T22:27:34.996Z,55.20
2018-04-27T22:33:15.920Z,55.30
2018-04-27T22:35:49.919Z,55.30
2018-04-27T22:38:34.080Z,55.30
2018-04-27T22:41:01.519Z,55.30
2018-04-27T22:43:28.984Z,55.40
2018-04-27T22:46:02.947Z,55.40
2018-04-27T22:48:33.963Z,55.40
2018-04-27T22:51:01.411Z,55.40
2018-04-27T22:53:29.456Z,55.30
2018-04-27T22:55:56.911Z,55.40
2018-04-27T22:58:24.390Z,55.30
2018-04-27T23:00:52.635Z,55.40
2018-04-27T23:03:20.120Z,55.40
2018-04-27T23:05:56.514Z,55.20
2018-04-27T23:08:23.991Z,55.20
2018-04-27T23:10:57.244Z,55.30
2018-04-27T23:13:24.717Z,55.30
2018-04-27T23:15:57.090Z,55.30
2018-04-27T23:18:25.256Z,55.30
2018-04-27T23:20:55.148Z,55.20
2018-04-27T23:23:22.605Z,55.30
2018-04-27T23:25:50.306Z,55.20
2018-04-27T23:28:17.772Z,55.20
2018-04-27T23:30:45.900Z,55.20
2018-04-27T23:33:13.475Z,55.10
2018-04-27T23:38:35.867Z,55.10
2018-04-27T23:41:03.625Z,55.10
2018-04-27T23:43:31.257Z,55.10
2018-04-27T23:45:58.716Z,55.10
2018-04-27T23:48:26.295Z,55.10
2018-04-27T23:51:00.613Z,55.00
2018-04-27T23:53:29.927Z,55.10
2018-04-27T23:55:58.284Z,55.00
2018-04-27T23:58:26.520Z,55.00
